Nearby METAR Reports

 

KNFE - Fentress Naval, Virginia, USA
Distance from station: ENE 5mi, 7km
Updated: Fri, 27-Nov-2020 2:56pm EST
Overcast
Overcast
 Wind from calm
Wind: Calm
Temperature: 59°F , 15°C
Dew Point: 57°F , 14°C
Humidity: 94%
Barometer: 30.00 inHg , 1015.9 hPa
Clouds: Overcast
Visibility: 9 miles , 14 km
Cloud details: Overcast 700 ft
2020/11/27 19:56 KNFE 271956Z AUTO 00000KT 9SM OVC007 15/14 A3000 RMK AO2 SLP160 T01500139
KCPK - Chesapeake, Virginia, USA
Distance from station: W 6mi, 9km
Updated: Fri, 27-Nov-2020 3:15pm EST
Overcast
Overcast
 Wind from NW
Wind: NW 5 mph , 7 km/h
Temperature: 59°F , 15°C
Dew Point: 57°F , 14°C
Humidity: 94%
Barometer: 30.01 inHg , 1016.3 hPa
Clouds: Overcast
Visibility: 10 miles , 16 km
Cloud details: Overcast 500 ft
2020/11/27 20:15 KCPK 272015Z AUTO 31004KT 10SM OVC005 15/14 A3001 RMK AO2 LTG DSNT E T01450140
 
KNTU - Oceana Nas/Souce, Virginia, USA
Distance from station: NE 14mi, 23km
Updated: Fri, 27-Nov-2020 2:56pm EST
Mist, Overcast
Mist, Overcast
 Wind from NNW
Wind: NNW 9 mph , 15 km/h
Temperature: 61°F , 16°C
Dew Point: 57°F , 14°C
Humidity: 88%
Barometer: 29.99 inHg , 1015.6 hPa
Summary: Mist
Clouds: Overcast
Visibility: 4 miles , 6 km
Cloud details: Overcast 600 ft
2020/11/27 19:56 KNTU 271956Z 34008KT 4SM BR OVC006 16/14 A2999 RMK AO2 SLP158 T01610139
KORF - Norfolk, Virginia, USA
Distance from station: N 15mi, 24km
Updated: Fri, 27-Nov-2020 2:51pm EST
Overcast
Overcast
 Wind from calm
Wind: Calm
Temperature: 59°F , 15°C
Dew Point: 55°F , 13°C
Humidity: 88%
Barometer: 30.00 inHg , 1015.9 hPa
Clouds: Overcast
Visibility: 8 miles , 13 km
Cloud details: Overcast 500 ft
2020/11/27 19:51 KORF 271951Z 00000KT 8SM OVC005 15/13 A3000 RMK AO2 SLP159 T01500133 $
 
KPVG - Norfolk/Hampton, Virginia, USA
Distance from station: WNW 15mi, 24km
Updated: Sun, 11-Oct-2020 8:56pm EDT
NOT Current
Light rain, Mist, Overcast
Light rain, Mist, Overcast
 Wind from E
Wind: E 7 mph , 11 km/h
Temperature: 66°F , 19°C
Dew Point: 66°F , 19°C
Humidity: 100%
Barometer: 30.00 inHg , 1015.9 hPa
Summary: Light rain, Mist
Clouds: Overcast
Visibility: 5 miles , 8 km
Cloud details: Overcast 700 ft
2020/10/12 00:56 KPVG 120056Z AUTO 10006KT 5SM -RA BR OVC007 19/19 A3000 RMK AO2 SLP159 T01890189 PNO $
KNGU - Norfolk Nas/Cham, Virginia, USA
Distance from station: N 16mi, 26km
Updated: Fri, 27-Nov-2020 3:24pm EST
Mist, Overcast
Mist, Overcast
 Wind from calm
Wind: Calm
Temperature: 59°F , 15°C
Dew Point: 54°F , 12°C
Humidity: 82%
Barometer: 30.02 inHg , 1016.6 hPa
Summary: Mist
Clouds: Overcast
Visibility: 6 miles , 10 km
Cloud details: Mostly cloudy 1000 ft
Overcast 1400 ft
2020/11/27 20:24 KNGU 272024Z 00000KT 6SM BR BKN010 OVC014 15/12 A3002 RMK AO2 CIG 007V012 T01500122 $
 
KSFQ - Suffolk, Virginia, USA
Distance from station: W 21mi, 34km
Updated: Fri, 27-Nov-2020 3:15pm EST
Overcast
Overcast
 Wind from calm
Wind: Calm
Temperature: 61°F , 16°C
Dew Point: 61°F , 16°C
Humidity: 100%
Barometer: 30.01 inHg , 1016.3 hPa
Clouds: Overcast
Visibility: 10 miles , 16 km
Cloud details: Partly cloudy 1000 ft
Overcast 2700 ft
2020/11/27 20:15 KSFQ 272015Z AUTO 00000KT 10SM SCT010 OVC027 16/16 A3001 RMK AO2 T01600156
KONX - Currituck, North Carolina, USA
Distance from station: SSE 22mi, 36km
Updated: Fri, 27-Nov-2020 3:15pm EST
Overcast
Overcast
 Wind from calm
Wind: Calm
Temperature: 61°F , 16°C
Dew Point: 61°F , 16°C
Humidity: 100%
Barometer: 29.98 inHg , 1015.2 hPa
Clouds: Overcast
Visibility: 10 miles , 16 km
Cloud details: Mostly cloudy 1200 ft
Overcast 2200 ft
2020/11/27 20:15 KONX 272015Z AUTO 00000KT 10SM BKN012 OVC022 16/16 A2998 RMK AO2 T01640164
 
KLFI - Langley Afb/Hamp, Virginia, USA
Distance from station: NNW 28mi, 45km
Updated: Fri, 27-Nov-2020 2:56pm EST
Overcast
Overcast
 Wind from NNE
Wind: NNE 5 mph , 7 km/h
Temperature: 61°F , 16°C
Dew Point: 61°F , 16°C
Humidity: 100%
Barometer: 30.01 inHg , 1016.3 hPa
Clouds: Overcast
Visibility: 10 miles , 16 km
Cloud details: Overcast 1300 ft
2020/11/27 19:56 KLFI 271956Z AUTO 03004KT 10SM OVC013 16/16 A3001 RMK AO2 SLP169 T01570157 $
KECG - Elizabeth City, North Carolina, USA
Distance from station: S 29mi, 46km
Updated: Fri, 27-Nov-2020 3:25pm EST
Overcast
Overcast
 Wind from NW
Wind: NW 6 mph , 9 km/h
Temperature: 64°F , 18°C
Dew Point: 63°F , 17°C
Humidity: 94%
Barometer: 29.99 inHg , 1015.6 hPa
Clouds: Overcast
Visibility: 10 miles , 16 km
Cloud details: Overcast 1800 ft
2020/11/27 20:25 KECG 272025Z 32005KT 10SM OVC018 18/17 A2999 RMK AO2 T01780167
 
KPHF - Newport News, Virginia, USA
Distance from station: NNW 35mi, 56km
Updated: Fri, 27-Nov-2020 2:54pm EST
Overcast
Overcast
 Wind from ESE
Wind: ESE 5 mph , 7 km/h
Temperature: 63°F , 17°C
Dew Point: 55°F , 13°C
Humidity: 77%
Barometer: 30.01 inHg , 1016.3 hPa
Clouds: Overcast
Visibility: 10 miles , 16 km
Cloud details: Overcast 2300 ft
2020/11/27 19:54 KPHF 271954Z AUTO 11004KT 10SM OVC023 17/13 A3001 RMK AO2 SLP161 T01720128
KFAF - Ft Eustis/Felker, Virginia, USA
Distance from station: NW 37mi, 60km
Updated: Fri, 27-Nov-2020 2:56pm EST
Mostly cloudy
Mostly cloudy
 Wind from calm
Wind: Calm
Temperature: 63°F , 17°C
Dew Point: 54°F , 12°C
Humidity: 73%
Barometer: 29.99 inHg , 1015.6 hPa
Clouds: Mostly cloudy
Visibility: 10 miles , 16 km
Cloud details: Mostly cloudy 2700 ft
2020/11/27 19:56 KFAF 271956Z AUTO 00000KT 10SM BKN027 17/12 A2999 RMK AO2 SLP159 T01700119 $
 
KFKN - Franklin/J B Ros, Virginia, USA
Distance from station: W 38mi, 61km
Updated: Fri, 27-Nov-2020 3:15pm EST
Overcast
Overcast
 Wind from calm
Wind: Calm
Temperature: 64°F , 18°C
Dew Point: 57°F , 14°C
Humidity: 78%
Barometer: 30.00 inHg , 1015.9 hPa
Clouds: Overcast
Visibility: 10 miles , 16 km
Cloud details: Partly cloudy 3000 ft
Overcast 5000 ft
2020/11/27 20:15 KFKN 272015Z AUTO 00000KT 10SM SCT030 OVC050 18/14 A3000 RMK AO2 LTG DSNT E T01800144
KJGG - Williamsburg, Virginia, USA
Distance from station: NW 47mi, 76km
Updated: Fri, 27-Nov-2020 3:15pm EST
Mostly cloudy
Mostly cloudy
 Wind from calm
Wind: Calm
Temperature: 66°F , 19°C
Dew Point: 54°F , 12°C
Humidity: 64%
Barometer: 30.01 inHg , 1016.3 hPa
Clouds: Mostly cloudy
Visibility: 10 miles , 16 km
Cloud details: Mostly cloudy 3600 ft
2020/11/27 20:15 KJGG 272015Z AUTO 00000KT 10SM BKN036 19/12 A3001 RMK AO1
 
KAKQ - Norfolk/Wakefld, Virginia, USA
Distance from station: WNW 48mi, 78km
Updated: Fri, 27-Nov-2020 2:54pm EST
Overcast
Overcast
 Wind from varies
Wind: varies 3 mph , 6 km/h
Temperature: 68°F , 20°C
Dew Point: 55°F , 13°C
Humidity: 64%
Barometer: 30.00 inHg , 1015.9 hPa
Clouds: Overcast
Visibility: 10 miles , 16 km
Cloud details: Overcast 3800 ft
2020/11/27 19:54 KAKQ 271954Z AUTO VRB03KT 10SM OVC038 20/13 A3000 RMK AO2 SLP158 T02000128
KEDE - Edenton, North Carolina, USA
Distance from station: SSW 50mi, 80km
Updated: Fri, 27-Nov-2020 3:15pm EST
Overcast
Overcast
 Wind from NW
Wind: NW 6 mph , 9 km/h
Temperature: 64°F , 18°C
Dew Point: 63°F , 17°C
Humidity: 94%
Barometer: 30.01 inHg , 1016.3 hPa
Clouds: Overcast
Visibility: 10 miles , 16 km
Cloud details: Overcast 900 ft
2020/11/27 20:15 KEDE 272015Z AUTO 31005KT 10SM OVC009 18/17 A3001 RMK AO2 T01800172